sensor_id;sensor_type;location;lat;lon;timestamp;P1;durP1;ratioP1;P2;durP2;ratioP2
66860;SDS011;53770;42.334;23.550;2022-08-18T00:02:11;6.57;;;4.45;;
66860;SDS011;53770;42.334;23.550;2022-08-18T00:04:41;8.00;;;5.30;;
66860;SDS011;53770;42.334;23.550;2022-08-18T00:07:09;8.85;;;4.80;;
66860;SDS011;53770;42.334;23.550;2022-08-18T00:09:38;9.13;;;5.10;;
66860;SDS011;53770;42.334;23.550;2022-08-18T00:12:07;8.73;;;4.73;;
66860;SDS011;53770;42.334;23.550;2022-08-18T00:14:37;8.68;;;4.95;;
66860;SDS011;53770;42.334;23.550;2022-08-18T00:17:03;8.57;;;5.22;;
66860;SDS011;53770;42.334;23.550;2022-08-18T00:19:30;10.63;;;4.93;;
66860;SDS011;53770;42.334;23.550;2022-08-18T00:21:57;7.22;;;4.68;;
66860;SDS011;53770;42.334;23.550;2022-08-18T00:24:24;8.90;;;4.60;;
66860;SDS011;53770;42.334;23.550;2022-08-18T00:26:51;11.02;;;5.85;;
66860;SDS011;53770;42.334;23.550;2022-08-18T00:29:18;8.57;;;5.45;;
66860;SDS011;53770;42.334;23.550;2022-08-18T00:31:47;7.88;;;4.88;;
66860;SDS011;53770;42.334;23.550;2022-08-18T00:34:13;7.03;;;4.82;;
66860;SDS011;53770;42.334;23.550;2022-08-18T00:36:40;11.03;;;4.90;;
66860;SDS011;53770;42.334;23.550;2022-08-18T00:39:08;10.55;;;5.22;;
66860;SDS011;53770;42.334;23.550;2022-08-18T00:41:35;9.57;;;5.03;;
66860;SDS011;53770;42.334;23.550;2022-08-18T00:44:02;6.88;;;4.97;;
66860;SDS011;53770;42.334;23.550;2022-08-18T00:46:31;7.88;;;4.82;;
66860;SDS011;53770;42.334;23.550;2022-08-18T00:49:03;7.50;;;4.83;;
66860;SDS011;53770;42.334;23.550;2022-08-18T00:51:32;9.00;;;4.97;;
66860;SDS011;53770;42.334;23.550;2022-08-18T00:54:04;9.73;;;5.22;;
66860;SDS011;53770;42.334;23.550;2022-08-18T00:56:36;7.95;;;5.30;;
66860;SDS011;53770;42.334;23.550;2022-08-18T00:59:08;7.93;;;5.00;;
66860;SDS011;53770;42.334;23.550;2022-08-18T01:01:39;7.77;;;4.90;;
66860;SDS011;53770;42.334;23.550;2022-08-18T01:04:10;7.90;;;5.35;;
66860;SDS011;53770;42.334;23.550;2022-08-18T01:06:43;9.05;;;5.25;;
66860;SDS011;53770;42.334;23.550;2022-08-18T01:09:13;8.50;;;5.40;;
66860;SDS011;53770;42.334;23.550;2022-08-18T01:11:41;8.63;;;5.10;;
66860;SDS011;53770;42.334;23.550;2022-08-18T01:14:08;7.70;;;4.77;;
66860;SDS011;53770;42.334;23.550;2022-08-18T01:16:40;7.65;;;5.13;;
66860;SDS011;53770;42.334;23.550;2022-08-18T01:19:37;7.47;;;5.13;;
66860;SDS011;53770;42.334;23.550;2022-08-18T01:22:28;8.05;;;4.97;;
66860;SDS011;53770;42.334;23.550;2022-08-18T01:25:02;9.45;;;5.22;;
66860;SDS011;53770;42.334;23.550;2022-08-18T01:27:48;8.27;;;4.93;;
66860;SDS011;53770;42.334;23.550;2022-08-18T01:30:16;11.77;;;5.13;;
66860;SDS011;53770;42.334;23.550;2022-08-18T01:32:46;8.00;;;4.85;;
66860;SDS011;53770;42.334;23.550;2022-08-18T01:35:16;7.70;;;4.95;;
66860;SDS011;53770;42.334;23.550;2022-08-18T01:37:45;9.57;;;4.63;;
66860;SDS011;53770;42.334;23.550;2022-08-18T01:40:14;9.17;;;5.23;;
66860;SDS011;53770;42.334;23.550;2022-08-18T01:42:42;8.98;;;4.90;;
66860;SDS011;53770;42.334;23.550;2022-08-18T01:45:10;7.43;;;4.85;;
66860;SDS011;53770;42.334;23.550;2022-08-18T01:47:38;8.35;;;4.55;;
66860;SDS011;53770;42.334;23.550;2022-08-18T01:50:06;9.00;;;5.20;;
66860;SDS011;53770;42.334;23.550;2022-08-18T01:52:34;8.47;;;4.70;;
66860;SDS011;53770;42.334;23.550;2022-08-18T01:55:01;7.90;;;4.57;;
66860;SDS011;53770;42.334;23.550;2022-08-18T01:57:30;7.75;;;4.85;;
66860;SDS011;53770;42.334;23.550;2022-08-18T01:59:57;7.90;;;4.65;;
66860;SDS011;53770;42.334;23.550;2022-08-18T02:02:25;8.27;;;5.18;;
66860;SDS011;53770;42.334;23.550;2022-08-18T02:04:57;7.47;;;4.80;;
66860;SDS011;53770;42.334;23.550;2022-08-18T02:07:26;9.65;;;5.22;;
66860;SDS011;53770;42.334;23.550;2022-08-18T02:09:53;9.23;;;5.10;;
66860;SDS011;53770;42.334;23.550;2022-08-18T02:12:20;8.23;;;4.75;;
66860;SDS011;53770;42.334;23.550;2022-08-18T02:14:48;9.25;;;4.75;;
66860;SDS011;53770;42.334;23.550;2022-08-18T02:17:17;8.87;;;4.80;;
66860;SDS011;53770;42.334;23.550;2022-08-18T02:19:44;9.30;;;4.72;;
66860;SDS011;53770;42.334;23.550;2022-08-18T02:22:15;7.57;;;4.82;;
66860;SDS011;53770;42.334;23.550;2022-08-18T02:24:44;8.90;;;4.45;;
66860;SDS011;53770;42.334;23.550;2022-08-18T02:27:11;9.18;;;5.10;;
66860;SDS011;53770;42.334;23.550;2022-08-18T02:29:39;10.10;;;5.30;;
66860;SDS011;53770;42.334;23.550;2022-08-18T02:32:08;10.55;;;5.13;;
66860;SDS011;53770;42.334;23.550;2022-08-18T02:34:34;7.93;;;4.68;;
66860;SDS011;53770;42.334;23.550;2022-08-18T02:37:01;6.70;;;4.50;;
66860;SDS011;53770;42.334;23.550;2022-08-18T02:39:28;7.20;;;4.80;;
66860;SDS011;53770;42.334;23.550;2022-08-18T02:41:55;7.33;;;4.63;;
66860;SDS011;53770;42.334;23.550;2022-08-18T02:44:22;7.32;;;4.88;;
66860;SDS011;53770;42.334;23.550;2022-08-18T02:46:50;8.43;;;4.95;;
66860;SDS011;53770;42.334;23.550;2022-08-18T02:49:19;8.18;;;4.82;;
66860;SDS011;53770;42.334;23.550;2022-08-18T02:51:46;8.25;;;4.80;;
66860;SDS011;53770;42.334;23.550;2022-08-18T02:54:13;13.53;;;5.50;;
66860;SDS011;53770;42.334;23.550;2022-08-18T02:56:40;10.73;;;5.07;;
66860;SDS011;53770;42.334;23.550;2022-08-18T02:59:10;7.22;;;4.85;;
66860;SDS011;53770;42.334;23.550;2022-08-18T03:01:39;9.30;;;5.05;;
66860;SDS011;53770;42.334;23.550;2022-08-18T03:04:08;11.02;;;4.72;;
66860;SDS011;53770;42.334;23.550;2022-08-18T03:06:39;8.73;;;4.83;;
66860;SDS011;53770;42.334;23.550;2022-08-18T03:09:07;9.98;;;4.78;;
66860;SDS011;53770;42.334;23.550;2022-08-18T03:11:36;9.00;;;5.05;;
66860;SDS011;53770;42.334;23.550;2022-08-18T03:14:03;8.02;;;4.95;;
66860;SDS011;53770;42.334;23.550;2022-08-18T03:16:31;9.57;;;5.00;;
66860;SDS011;53770;42.334;23.550;2022-08-18T03:18:59;7.53;;;4.97;;
66860;SDS011;53770;42.334;23.550;2022-08-18T03:21:27;8.05;;;5.13;;
66860;SDS011;53770;42.334;23.550;2022-08-18T03:23:57;8.20;;;4.70;;
66860;SDS011;53770;42.334;23.550;2022-08-18T03:26:24;9.85;;;5.22;;
66860;SDS011;53770;42.334;23.550;2022-08-18T03:28:52;8.10;;;5.25;;
66860;SDS011;53770;42.334;23.550;2022-08-18T03:31:20;7.60;;;4.73;;
66860;SDS011;53770;42.334;23.550;2022-08-18T03:33:48;9.57;;;4.95;;
66860;SDS011;53770;42.334;23.550;2022-08-18T03:36:18;10.45;;;5.07;;
66860;SDS011;53770;42.334;23.550;2022-08-18T03:38:47;8.32;;;5.30;;
66860;SDS011;53770;42.334;23.550;2022-08-18T03:41:17;8.38;;;4.65;;
66860;SDS011;53770;42.334;23.550;2022-08-18T03:43:47;9.13;;;5.50;;
66860;SDS011;53770;42.334;23.550;2022-08-18T03:46:14;7.40;;;5.30;;
66860;SDS011;53770;42.334;23.550;2022-08-18T03:48:42;7.65;;;5.05;;
66860;SDS011;53770;42.334;23.550;2022-08-18T03:51:12;11.35;;;5.47;;
66860;SDS011;53770;42.334;23.550;2022-08-18T03:53:41;8.77;;;5.50;;
66860;SDS011;53770;42.334;23.550;2022-08-18T03:56:09;11.20;;;5.40;;
66860;SDS011;53770;42.334;23.550;2022-08-18T03:58:41;9.48;;;5.22;;
66860;SDS011;53770;42.334;23.550;2022-08-18T04:01:10;8.38;;;5.45;;
66860;SDS011;53770;42.334;23.550;2022-08-18T04:03:39;7.70;;;5.15;;
66860;SDS011;53770;42.334;23.550;2022-08-18T04:06:07;8.65;;;5.60;;
66860;SDS011;53770;42.334;23.550;2022-08-18T04:08:34;8.13;;;5.27;;
66860;SDS011;53770;42.334;23.550;2022-08-18T04:11:01;8.52;;;5.07;;
66860;SDS011;53770;42.334;23.550;2022-08-18T04:13:27;7.75;;;5.47;;
66860;SDS011;53770;42.334;23.550;2022-08-18T04:15:58;8.00;;;5.40;;
66860;SDS011;53770;42.334;23.550;2022-08-18T04:18:25;8.60;;;5.30;;
66860;SDS011;53770;42.334;23.550;2022-08-18T04:20:52;7.93;;;5.23;;
66860;SDS011;53770;42.334;23.550;2022-08-18T04:23:19;8.40;;;5.28;;
66860;SDS011;53770;42.334;23.550;2022-08-18T04:25:54;9.25;;;5.05;;
66860;SDS011;53770;42.334;23.550;2022-08-18T04:28:21;8.70;;;5.63;;
66860;SDS011;53770;42.334;23.550;2022-08-18T04:30:48;10.63;;;4.65;;
66860;SDS011;53770;42.334;23.550;2022-08-18T04:33:16;9.33;;;5.43;;
66860;SDS011;53770;42.334;23.550;2022-08-18T04:35:43;10.32;;;4.68;;
66860;SDS011;53770;42.334;23.550;2022-08-18T04:38:11;7.95;;;4.82;;
66860;SDS011;53770;42.334;23.550;2022-08-18T04:40:38;8.65;;;5.40;;
66860;SDS011;53770;42.334;23.550;2022-08-18T04:43:05;7.75;;;5.00;;
66860;SDS011;53770;42.334;23.550;2022-08-18T04:45:35;11.50;;;5.27;;
66860;SDS011;53770;42.334;23.550;2022-08-18T04:48:04;9.02;;;5.20;;
66860;SDS011;53770;42.334;23.550;2022-08-18T04:50:34;8.40;;;4.78;;
66860;SDS011;53770;42.334;23.550;2022-08-18T04:53:01;8.02;;;5.18;;
66860;SDS011;53770;42.334;23.550;2022-08-18T04:55:46;9.02;;;5.05;;
66860;SDS011;53770;42.334;23.550;2022-08-18T04:58:15;9.40;;;5.50;;
66860;SDS011;53770;42.334;23.550;2022-08-18T05:00:42;8.65;;;5.20;;
66860;SDS011;53770;42.334;23.550;2022-08-18T05:03:09;8.18;;;5.40;;
66860;SDS011;53770;42.334;23.550;2022-08-18T05:05:38;8.98;;;5.55;;
66860;SDS011;53770;42.334;23.550;2022-08-18T05:08:04;8.85;;;5.22;;
66860;SDS011;53770;42.334;23.550;2022-08-18T05:10:31;10.10;;;4.90;;
66860;SDS011;53770;42.334;23.550;2022-08-18T05:12:58;9.13;;;5.20;;
66860;SDS011;53770;42.334;23.550;2022-08-18T05:15:25;8.20;;;5.07;;
66860;SDS011;53770;42.334;23.550;2022-08-18T05:17:52;8.75;;;5.22;;
66860;SDS011;53770;42.334;23.550;2022-08-18T05:20:19;8.02;;;5.40;;
66860;SDS011;53770;42.334;23.550;2022-08-18T05:22:48;10.17;;;5.70;;
66860;SDS011;53770;42.334;23.550;2022-08-18T05:25:15;10.60;;;5.35;;
66860;SDS011;53770;42.334;23.550;2022-08-18T05:27:42;9.60;;;5.53;;
66860;SDS011;53770;42.334;23.550;2022-08-18T05:30:09;9.50;;;5.25;;
66860;SDS011;53770;42.334;23.550;2022-08-18T05:32:40;9.82;;;5.63;;
66860;SDS011;53770;42.334;23.550;2022-08-18T05:35:10;8.20;;;5.70;;
66860;SDS011;53770;42.334;23.550;2022-08-18T05:37:41;6.90;;;4.88;;
66860;SDS011;53770;42.334;23.550;2022-08-18T05:40:22;9.63;;;5.22;;
66860;SDS011;53770;42.334;23.550;2022-08-18T05:42:49;7.28;;;4.78;;
66860;SDS011;53770;42.334;23.550;2022-08-18T05:45:18;9.32;;;5.00;;
66860;SDS011;53770;42.334;23.550;2022-08-18T05:47:45;7.23;;;4.70;;
66860;SDS011;53770;42.334;23.550;2022-08-18T05:50:13;9.95;;;5.00;;
66860;SDS011;53770;42.334;23.550;2022-08-18T05:52:46;11.18;;;5.53;;
66860;SDS011;53770;42.334;23.550;2022-08-18T05:55:19;9.52;;;5.22;;
66860;SDS011;53770;42.334;23.550;2022-08-18T05:58:07;7.90;;;5.55;;
66860;SDS011;53770;42.334;23.550;2022-08-18T06:00:39;9.10;;;5.13;;
66860;SDS011;53770;42.334;23.550;2022-08-18T06:03:11;8.73;;;5.13;;
66860;SDS011;53770;42.334;23.550;2022-08-18T06:05:43;7.63;;;5.28;;
66860;SDS011;53770;42.334;23.550;2022-08-18T06:08:16;9.05;;;5.38;;
66860;SDS011;53770;42.334;23.550;2022-08-18T06:10:47;11.13;;;5.25;;
66860;SDS011;53770;42.334;23.550;2022-08-18T06:13:15;6.97;;;5.20;;
66860;SDS011;53770;42.334;23.550;2022-08-18T06:15:47;7.45;;;4.93;;
66860;SDS011;53770;42.334;23.550;2022-08-18T06:18:32;7.63;;;5.05;;
66860;SDS011;53770;42.334;23.550;2022-08-18T06:21:14;8.57;;;5.22;;
66860;SDS011;53770;42.334;23.550;2022-08-18T06:23:54;8.95;;;4.80;;
66860;SDS011;53770;42.334;23.550;2022-08-18T06:26:30;9.67;;;5.27;;
66860;SDS011;53770;42.334;23.550;2022-08-18T06:29:06;6.85;;;4.85;;
66860;SDS011;53770;42.334;23.550;2022-08-18T06:31:44;9.43;;;4.82;;
66860;SDS011;53770;42.334;23.550;2022-08-18T06:34:20;7.93;;;5.45;;
66860;SDS011;53770;42.334;23.550;2022-08-18T06:36:57;8.60;;;5.18;;
66860;SDS011;53770;42.334;23.550;2022-08-18T06:39:34;9.27;;;5.60;;
66860;SDS011;53770;42.334;23.550;2022-08-18T06:42:08;8.75;;;5.30;;
66860;SDS011;53770;42.334;23.550;2022-08-18T06:44:36;8.65;;;5.00;;
66860;SDS011;53770;42.334;23.550;2022-08-18T06:47:09;7.63;;;4.82;;
66860;SDS011;53770;42.334;23.550;2022-08-18T06:49:43;8.93;;;5.40;;
66860;SDS011;53770;42.334;23.550;2022-08-18T06:52:23;7.73;;;5.00;;
66860;SDS011;53770;42.334;23.550;2022-08-18T06:54:55;7.55;;;5.00;;
66860;SDS011;53770;42.334;23.550;2022-08-18T06:57:25;7.80;;;4.85;;
66860;SDS011;53770;42.334;23.550;2022-08-18T06:59:58;8.75;;;4.65;;
66860;SDS011;53770;42.334;23.550;2022-08-18T07:02:33;8.98;;;5.05;;
66860;SDS011;53770;42.334;23.550;2022-08-18T07:05:14;9.73;;;4.60;;
66860;SDS011;53770;42.334;23.550;2022-08-18T07:07:59;7.32;;;4.18;;
66860;SDS011;53770;42.334;23.550;2022-08-18T07:10:33;8.77;;;4.30;;
66860;SDS011;53770;42.334;23.550;2022-08-18T07:13:07;5.93;;;4.20;;
66860;SDS011;53770;42.334;23.550;2022-08-18T07:15:40;9.27;;;4.50;;
66860;SDS011;53770;42.334;23.550;2022-08-18T07:18:10;8.60;;;5.00;;
66860;SDS011;53770;42.334;23.550;2022-08-18T07:20:41;7.80;;;4.72;;
66860;SDS011;53770;42.334;23.550;2022-08-18T07:23:19;8.85;;;5.03;;
66860;SDS011;53770;42.334;23.550;2022-08-18T07:25:52;7.40;;;4.65;;
66860;SDS011;53770;42.334;23.550;2022-08-18T07:28:27;6.13;;;4.25;;
66860;SDS011;53770;42.334;23.550;2022-08-18T07:31:05;6.20;;;4.10;;
66860;SDS011;53770;42.334;23.550;2022-08-18T07:33:42;6.18;;;3.97;;
66860;SDS011;53770;42.334;23.550;2022-08-18T07:36:15;8.05;;;4.20;;
66860;SDS011;53770;42.334;23.550;2022-08-18T07:38:47;9.05;;;3.97;;
66860;SDS011;53770;42.334;23.550;2022-08-18T07:41:20;5.43;;;3.65;;
66860;SDS011;53770;42.334;23.550;2022-08-18T07:43:54;6.23;;;3.70;;
66860;SDS011;53770;42.334;23.550;2022-08-18T07:46:27;8.70;;;4.40;;
66860;SDS011;53770;42.334;23.550;2022-08-18T07:49:00;10.43;;;3.90;;
66860;SDS011;53770;42.334;23.550;2022-08-18T07:51:28;8.27;;;4.75;;
66860;SDS011;53770;42.334;23.550;2022-08-18T07:54:09;6.22;;;4.13;;
66860;SDS011;53770;42.334;23.550;2022-08-18T07:56:47;6.33;;;4.23;;
66860;SDS011;53770;42.334;23.550;2022-08-18T07:59:22;5.05;;;3.85;;
66860;SDS011;53770;42.334;23.550;2022-08-18T08:01:54;5.85;;;3.75;;
66860;SDS011;53770;42.334;23.550;2022-08-18T08:04:43;6.65;;;4.10;;
66860;SDS011;53770;42.334;23.550;2022-08-18T08:07:16;7.75;;;4.50;;
66860;SDS011;53770;42.334;23.550;2022-08-18T08:09:50;6.70;;;4.40;;
66860;SDS011;53770;42.334;23.550;2022-08-18T08:12:29;5.82;;;3.97;;
66860;SDS011;53770;42.334;23.550;2022-08-18T08:15:11;5.72;;;3.78;;
66860;SDS011;53770;42.334;23.550;2022-08-18T08:17:47;5.72;;;4.00;;
66860;SDS011;53770;42.334;23.550;2022-08-18T08:20:20;6.03;;;4.30;;
66860;SDS011;53770;42.334;23.550;2022-08-18T08:22:56;6.07;;;3.80;;
66860;SDS011;53770;42.334;23.550;2022-08-18T08:25:31;6.22;;;4.07;;
66860;SDS011;53770;42.334;23.550;2022-08-18T08:28:10;6.38;;;4.30;;
66860;SDS011;53770;42.334;23.550;2022-08-18T08:30:46;6.10;;;4.65;;
66860;SDS011;53770;42.334;23.550;2022-08-18T08:33:25;6.90;;;4.00;;
66860;SDS011;53770;42.334;23.550;2022-08-18T08:36:01;6.70;;;4.20;;
66860;SDS011;53770;42.334;23.550;2022-08-18T08:38:35;5.65;;;4.30;;
66860;SDS011;53770;42.334;23.550;2022-08-18T08:41:08;6.68;;;4.00;;
66860;SDS011;53770;42.334;23.550;2022-08-18T08:43:40;5.85;;;4.53;;
66860;SDS011;53770;42.334;23.550;2022-08-18T08:46:11;10.23;;;4.53;;
66860;SDS011;53770;42.334;23.550;2022-08-18T08:48:43;7.53;;;4.23;;
66860;SDS011;53770;42.334;23.550;2022-08-18T08:51:27;7.82;;;4.30;;
66860;SDS011;53770;42.334;23.550;2022-08-18T08:53:59;8.27;;;4.20;;
66860;SDS011;53770;42.334;23.550;2022-08-18T08:56:32;5.53;;;4.13;;
66860;SDS011;53770;42.334;23.550;2022-08-18T08:59:06;7.05;;;4.15;;
66860;SDS011;53770;42.334;23.550;2022-08-18T09:01:39;6.53;;;4.00;;
66860;SDS011;53770;42.334;23.550;2022-08-18T09:04:20;7.32;;;4.38;;
66860;SDS011;53770;42.334;23.550;2022-08-18T09:06:59;6.97;;;4.18;;
66860;SDS011;53770;42.334;23.550;2022-08-18T09:09:46;6.40;;;4.40;;
66860;SDS011;53770;42.334;23.550;2022-08-18T09:12:47;8.75;;;4.20;;
66860;SDS011;53770;42.334;23.550;2022-08-18T09:15:27;5.77;;;4.30;;
66860;SDS011;53770;42.334;23.550;2022-08-18T09:18:15;8.73;;;4.25;;
66860;SDS011;53770;42.334;23.550;2022-08-18T09:20:59;7.32;;;4.00;;
66860;SDS011;53770;42.334;23.550;2022-08-18T09:23:44;6.15;;;4.65;;
66860;SDS011;53770;42.334;23.550;2022-08-18T09:26:24;6.93;;;4.65;;
66860;SDS011;53770;42.334;23.550;2022-08-18T09:29:11;6.23;;;4.80;;
66860;SDS011;53770;42.334;23.550;2022-08-18T09:31:42;7.07;;;4.60;;
66860;SDS011;53770;42.334;23.550;2022-08-18T09:34:16;6.68;;;4.60;;
66860;SDS011;53770;42.334;23.550;2022-08-18T09:36:59;5.93;;;4.65;;
66860;SDS011;53770;42.334;23.550;2022-08-18T09:39:30;7.10;;;5.60;;
66860;SDS011;53770;42.334;23.550;2022-08-18T09:42:25;6.23;;;4.80;;
66860;SDS011;53770;42.334;23.550;2022-08-18T09:44:58;7.72;;;4.85;;
66860;SDS011;53770;42.334;23.550;2022-08-18T09:53:34;6.88;;;5.97;;
66860;SDS011;53770;42.334;23.550;2022-08-18T09:56:54;7.00;;;6.23;;
66860;SDS011;53770;42.334;23.550;2022-08-18T10:11:51;8.00;;;7.20;;
66860;SDS011;53770;42.334;23.550;2022-08-18T10:14:43;8.02;;;7.40;;
66860;SDS011;53770;42.334;23.550;2022-08-18T10:17:24;9.48;;;8.68;;
66860;SDS011;53770;42.334;23.550;2022-08-18T10:20:07;6.50;;;5.63;;
66860;SDS011;53770;42.334;23.550;2022-08-18T10:22:46;9.55;;;8.57;;
66860;SDS011;53770;42.334;23.550;2022-08-18T10:25:29;8.88;;;7.05;;
66860;SDS011;53770;42.334;23.550;2022-08-18T10:27:58;7.13;;;6.00;;
66860;SDS011;53770;42.334;23.550;2022-08-18T10:36:42;7.95;;;7.15;;
66860;SDS011;53770;42.334;23.550;2022-08-18T10:39:12;11.30;;;10.30;;
66860;SDS011;53770;42.334;23.550;2022-08-18T10:41:51;11.80;;;10.90;;
66860;SDS011;53770;42.334;23.550;2022-08-18T10:44:23;13.57;;;12.27;;
66860;SDS011;53770;42.334;23.550;2022-08-18T10:46:52;13.88;;;12.77;;
66860;SDS011;53770;42.334;23.550;2022-08-18T10:49:21;15.07;;;13.97;;
66860;SDS011;53770;42.334;23.550;2022-08-18T10:52:04;13.60;;;12.70;;
66860;SDS011;53770;42.334;23.550;2022-08-18T10:57:53;18.15;;;16.73;;
66860;SDS011;53770;42.334;23.550;2022-08-18T11:00:41;19.33;;;18.05;;
66860;SDS011;53770;42.334;23.550;2022-08-18T11:03:16;21.67;;;20.27;;
66860;SDS011;53770;42.334;23.550;2022-08-18T11:06:00;18.92;;;17.63;;
66860;SDS011;53770;42.334;23.550;2022-08-18T11:08:30;20.40;;;19.10;;
66860;SDS011;53770;42.334;23.550;2022-08-18T11:11:05;23.05;;;21.55;;
66860;SDS011;53770;42.334;23.550;2022-08-18T11:13:46;21.67;;;20.15;;
66860;SDS011;53770;42.334;23.550;2022-08-18T11:16:25;24.57;;;23.10;;
66860;SDS011;53770;42.334;23.550;2022-08-18T11:19:02;23.08;;;21.67;;
66860;SDS011;53770;42.334;23.550;2022-08-18T11:21:34;22.13;;;20.52;;
66860;SDS011;53770;42.334;23.550;2022-08-18T11:24:12;24.60;;;23.13;;
66860;SDS011;53770;42.334;23.550;2022-08-18T11:26:44;23.27;;;21.60;;
66860;SDS011;53770;42.334;23.550;2022-08-18T11:29:16;25.03;;;23.40;;
66860;SDS011;53770;42.334;23.550;2022-08-18T11:31:53;22.45;;;21.05;;
66860;SDS011;53770;42.334;23.550;2022-08-18T11:34:24;26.65;;;24.90;;
66860;SDS011;53770;42.334;23.550;2022-08-18T11:36:56;26.83;;;25.23;;
66860;SDS011;53770;42.334;23.550;2022-08-18T11:39:26;29.73;;;27.90;;
66860;SDS011;53770;42.334;23.550;2022-08-18T11:41:54;29.33;;;27.63;;
66860;SDS011;53770;42.334;23.550;2022-08-18T11:44:21;30.10;;;28.20;;
66860;SDS011;53770;42.334;23.550;2022-08-18T11:46:53;29.20;;;27.50;;
66860;SDS011;53770;42.334;23.550;2022-08-18T11:49:27;31.48;;;29.48;;
66860;SDS011;53770;42.334;23.550;2022-08-18T11:51:57;28.95;;;26.95;;
66860;SDS011;53770;42.334;23.550;2022-08-18T11:54:33;29.80;;;28.10;;
66860;SDS011;53770;42.334;23.550;2022-08-18T12:03:03;30.27;;;28.52;;
66860;SDS011;53770;42.334;23.550;2022-08-18T12:05:39;32.45;;;30.48;;
66860;SDS011;53770;42.334;23.550;2022-08-18T12:08:15;31.77;;;29.93;;
66860;SDS011;53770;42.334;23.550;2022-08-18T12:10:59;31.65;;;29.75;;
66860;SDS011;53770;42.334;23.550;2022-08-18T12:13:28;33.58;;;31.60;;
66860;SDS011;53770;42.334;23.550;2022-08-18T12:18:39;36.08;;;34.08;;
66860;SDS011;53770;42.334;23.550;2022-08-18T12:21:07;37.80;;;35.60;;
66860;SDS011;53770;42.334;23.550;2022-08-18T12:23:36;37.70;;;35.60;;
66860;SDS011;53770;42.334;23.550;2022-08-18T12:26:06;38.08;;;35.88;;
66860;SDS011;53770;42.334;23.550;2022-08-18T12:28:34;39.83;;;37.45;;
66860;SDS011;53770;42.334;23.550;2022-08-18T12:31:01;28.15;;;26.45;;
66860;SDS011;53770;42.334;23.550;2022-08-18T12:33:28;32.40;;;30.43;;
66860;SDS011;53770;42.334;23.550;2022-08-18T12:35:55;33.08;;;31.10;;
66860;SDS011;53770;42.334;23.550;2022-08-18T12:38:22;32.08;;;30.10;;
66860;SDS011;53770;42.334;23.550;2022-08-18T12:40:49;32.33;;;30.52;;
66860;SDS011;53770;42.334;23.550;2022-08-18T12:43:17;35.33;;;33.20;;
66860;SDS011;53770;42.334;23.550;2022-08-18T12:45:44;33.93;;;31.93;;
66860;SDS011;53770;42.334;23.550;2022-08-18T12:48:11;34.90;;;32.70;;
66860;SDS011;53770;42.334;23.550;2022-08-18T12:50:38;34.45;;;32.45;;
66860;SDS011;53770;42.334;23.550;2022-08-18T12:53:05;31.75;;;29.95;;
66860;SDS011;53770;42.334;23.550;2022-08-18T12:55:33;31.23;;;29.33;;
66860;SDS011;53770;42.334;23.550;2022-08-18T12:58:02;27.03;;;25.53;;
66860;SDS011;53770;42.334;23.550;2022-08-18T13:00:30;26.30;;;24.60;;
66860;SDS011;53770;42.334;23.550;2022-08-18T13:02:57;24.95;;;23.35;;
66860;SDS011;53770;42.334;23.550;2022-08-18T13:05:24;24.73;;;23.25;;
66860;SDS011;53770;42.334;23.550;2022-08-18T13:07:51;22.60;;;21.17;;
66860;SDS011;53770;42.334;23.550;2022-08-18T13:10:18;24.00;;;22.50;;
66860;SDS011;53770;42.334;23.550;2022-08-18T13:12:45;23.60;;;22.00;;
66860;SDS011;53770;42.334;23.550;2022-08-18T13:15:12;24.02;;;22.48;;
66860;SDS011;53770;42.334;23.550;2022-08-18T13:17:40;25.75;;;24.15;;
66860;SDS011;53770;42.334;23.550;2022-08-18T13:20:09;17.13;;;16.02;;
66860;SDS011;53770;42.334;23.550;2022-08-18T13:22:38;21.83;;;20.33;;
66860;SDS011;53770;42.334;23.550;2022-08-18T13:25:05;14.70;;;13.75;;
66860;SDS011;53770;42.334;23.550;2022-08-18T13:27:34;11.98;;;11.18;;
66860;SDS011;53770;42.334;23.550;2022-08-18T13:30:02;8.85;;;8.05;;
66860;SDS011;53770;42.334;23.550;2022-08-18T13:32:31;7.32;;;6.63;;
66860;SDS011;53770;42.334;23.550;2022-08-18T13:35:00;11.18;;;10.32;;
66860;SDS011;53770;42.334;23.550;2022-08-18T13:37:26;8.70;;;8.00;;
66860;SDS011;53770;42.334;23.550;2022-08-18T13:39:56;12.52;;;11.50;;
66860;SDS011;53770;42.334;23.550;2022-08-18T13:42:23;8.20;;;7.40;;
66860;SDS011;53770;42.334;23.550;2022-08-18T13:44:51;11.10;;;10.30;;
66860;SDS011;53770;42.334;23.550;2022-08-18T13:47:19;13.10;;;12.20;;
66860;SDS011;53770;42.334;23.550;2022-08-18T13:49:46;12.90;;;11.93;;
66860;SDS011;53770;42.334;23.550;2022-08-18T13:52:14;11.88;;;10.88;;
66860;SDS011;53770;42.334;23.550;2022-08-18T13:54:41;13.30;;;12.30;;
66860;SDS011;53770;42.334;23.550;2022-08-18T13:57:10;13.75;;;12.75;;
66860;SDS011;53770;42.334;23.550;2022-08-18T13:59:37;10.45;;;9.63;;
66860;SDS011;53770;42.334;23.550;2022-08-18T14:02:06;12.52;;;11.63;;
66860;SDS011;53770;42.334;23.550;2022-08-18T14:04:34;14.13;;;13.05;;
66860;SDS011;53770;42.334;23.550;2022-08-18T14:07:02;13.85;;;12.70;;
66860;SDS011;53770;42.334;23.550;2022-08-18T14:09:32;12.82;;;11.93;;
66860;SDS011;53770;42.334;23.550;2022-08-18T14:11:59;14.55;;;13.55;;
66860;SDS011;53770;42.334;23.550;2022-08-18T14:14:27;12.68;;;11.73;;
66860;SDS011;53770;42.334;23.550;2022-08-18T14:16:55;8.35;;;7.03;;
66860;SDS011;53770;42.334;23.550;2022-08-18T14:19:22;10.73;;;9.80;;
66860;SDS011;53770;42.334;23.550;2022-08-18T14:22:05;12.73;;;11.63;;
66860;SDS011;53770;42.334;23.550;2022-08-18T14:24:51;9.73;;;7.13;;
66860;SDS011;53770;42.334;23.550;2022-08-18T14:27:36;11.35;;;10.30;;
66860;SDS011;53770;42.334;23.550;2022-08-18T14:30:05;7.30;;;6.70;;
66860;SDS011;53770;42.334;23.550;2022-08-18T14:32:35;5.95;;;5.43;;
66860;SDS011;53770;42.334;23.550;2022-08-18T14:35:03;12.75;;;7.80;;
66860;SDS011;53770;42.334;23.550;2022-08-18T14:37:33;9.63;;;8.73;;
66860;SDS011;53770;42.334;23.550;2022-08-18T14:40:02;8.87;;;8.07;;
66860;SDS011;53770;42.334;23.550;2022-08-18T14:42:29;6.20;;;5.55;;
66860;SDS011;53770;42.334;23.550;2022-08-18T14:44:56;7.78;;;7.07;;
66860;SDS011;53770;42.334;23.550;2022-08-18T14:47:23;8.15;;;5.30;;
66860;SDS011;53770;42.334;23.550;2022-08-18T14:49:51;5.35;;;4.20;;
66860;SDS011;53770;42.334;23.550;2022-08-18T14:52:18;8.67;;;4.70;;
66860;SDS011;53770;42.334;23.550;2022-08-18T14:54:47;4.63;;;3.95;;
66860;SDS011;53770;42.334;23.550;2022-08-18T14:57:16;6.90;;;4.32;;
66860;SDS011;53770;42.334;23.550;2022-08-18T14:59:43;5.75;;;4.50;;
66860;SDS011;53770;42.334;23.550;2022-08-18T15:02:11;6.07;;;4.55;;
66860;SDS011;53770;42.334;23.550;2022-08-18T15:04:38;6.00;;;4.97;;
66860;SDS011;53770;42.334;23.550;2022-08-18T15:07:05;6.60;;;5.20;;
66860;SDS011;53770;42.334;23.550;2022-08-18T15:09:32;7.57;;;4.70;;
66860;SDS011;53770;42.334;23.550;2022-08-18T15:11:58;6.18;;;4.40;;
66860;SDS011;53770;42.334;23.550;2022-08-18T15:14:28;6.18;;;4.50;;
66860;SDS011;53770;42.334;23.550;2022-08-18T15:16:56;6.27;;;4.00;;
66860;SDS011;53770;42.334;23.550;2022-08-18T15:19:23;5.75;;;4.20;;
66860;SDS011;53770;42.334;23.550;2022-08-18T15:21:50;6.95;;;3.97;;
66860;SDS011;53770;42.334;23.550;2022-08-18T15:24:37;7.60;;;4.35;;
66860;SDS011;53770;42.334;23.550;2022-08-18T15:27:22;6.43;;;4.35;;
66860;SDS011;53770;42.334;23.550;2022-08-18T15:29:50;5.80;;;4.17;;
66860;SDS011;53770;42.334;23.550;2022-08-18T15:32:17;7.93;;;3.70;;